sensor_id;sensor_type;location;lat;lon;timestamp;P1;durP1;ratioP1;P2;durP2;ratioP2
69246;SDS011;56358;56.328;43.992;2022-12-18T00:01:36;28.65;;;9.30;;
69246;SDS011;56358;56.328;43.992;2022-12-18T00:03:37;30.10;;;9.57;;
69246;SDS011;56358;56.328;43.992;2022-12-18T00:05:45;23.88;;;8.80;;
69246;SDS011;56358;56.328;43.992;2022-12-18T00:07:49;21.30;;;8.40;;
69246;SDS011;56358;56.328;43.992;2022-12-18T00:09:50;17.05;;;7.13;;
69246;SDS011;56358;56.328;43.992;2022-12-18T00:11:50;23.27;;;8.18;;
69246;SDS011;56358;56.328;43.992;2022-12-18T00:13:51;24.02;;;8.07;;
69246;SDS011;56358;56.328;43.992;2022-12-18T00:15:53;22.30;;;8.77;;
69246;SDS011;56358;56.328;43.992;2022-12-18T00:17:53;23.98;;;9.50;;
69246;SDS011;56358;56.328;43.992;2022-12-18T00:19:54;24.85;;;10.70;;
69246;SDS011;56358;56.328;43.992;2022-12-18T00:21:55;21.75;;;8.45;;
69246;SDS011;56358;56.328;43.992;2022-12-18T00:23:55;27.35;;;9.10;;
69246;SDS011;56358;56.328;43.992;2022-12-18T00:26:00;26.75;;;8.75;;
69246;SDS011;56358;56.328;43.992;2022-12-18T00:28:02;18.75;;;8.18;;
69246;SDS011;56358;56.328;43.992;2022-12-18T00:30:03;21.40;;;8.75;;
69246;SDS011;56358;56.328;43.992;2022-12-18T00:32:05;25.25;;;9.20;;
69246;SDS011;56358;56.328;43.992;2022-12-18T00:34:06;26.60;;;9.43;;
69246;SDS011;56358;56.328;43.992;2022-12-18T00:36:11;21.30;;;7.80;;
69246;SDS011;56358;56.328;43.992;2022-12-18T00:38:19;23.15;;;8.95;;
69246;SDS011;56358;56.328;43.992;2022-12-18T00:40:19;20.60;;;8.20;;
69246;SDS011;56358;56.328;43.992;2022-12-18T00:42:20;25.17;;;8.88;;
69246;SDS011;56358;56.328;43.992;2022-12-18T00:44:39;23.60;;;8.77;;
69246;SDS011;56358;56.328;43.992;2022-12-18T00:46:40;25.42;;;9.65;;
69246;SDS011;56358;56.328;43.992;2022-12-18T00:48:41;21.13;;;7.38;;
69246;SDS011;56358;56.328;43.992;2022-12-18T00:50:42;17.75;;;7.43;;
69246;SDS011;56358;56.328;43.992;2022-12-18T00:52:42;26.55;;;9.55;;
69246;SDS011;56358;56.328;43.992;2022-12-18T00:54:43;21.73;;;8.02;;
69246;SDS011;56358;56.328;43.992;2022-12-18T00:56:44;20.02;;;8.77;;
69246;SDS011;56358;56.328;43.992;2022-12-18T00:58:45;24.23;;;9.10;;
69246;SDS011;56358;56.328;43.992;2022-12-18T01:00:45;24.83;;;9.43;;
69246;SDS011;56358;56.328;43.992;2022-12-18T01:02:46;21.50;;;6.38;;
69246;SDS011;56358;56.328;43.992;2022-12-18T01:04:47;20.83;;;7.03;;
69246;SDS011;56358;56.328;43.992;2022-12-18T01:06:47;20.02;;;8.13;;
69246;SDS011;56358;56.328;43.992;2022-12-18T01:08:48;17.10;;;7.10;;
69246;SDS011;56358;56.328;43.992;2022-12-18T01:10:49;20.33;;;6.85;;
69246;SDS011;56358;56.328;43.992;2022-12-18T01:12:50;20.25;;;8.50;;
69246;SDS011;56358;56.328;43.992;2022-12-18T01:14:51;26.38;;;10.10;;
69246;SDS011;56358;56.328;43.992;2022-12-18T01:16:51;22.63;;;7.95;;
69246;SDS011;56358;56.328;43.992;2022-12-18T01:18:53;24.70;;;9.20;;
69246;SDS011;56358;56.328;43.992;2022-12-18T01:20:54;18.20;;;6.85;;
69246;SDS011;56358;56.328;43.992;2022-12-18T01:22:55;16.67;;;6.43;;
69246;SDS011;56358;56.328;43.992;2022-12-18T01:24:55;19.45;;;7.82;;
69246;SDS011;56358;56.328;43.992;2022-12-18T01:26:56;20.27;;;7.95;;
69246;SDS011;56358;56.328;43.992;2022-12-18T01:28:57;18.40;;;7.53;;
69246;SDS011;56358;56.328;43.992;2022-12-18T01:31:08;25.70;;;8.70;;
69246;SDS011;56358;56.328;43.992;2022-12-18T01:33:28;19.15;;;7.05;;
69246;SDS011;56358;56.328;43.992;2022-12-18T01:35:28;15.65;;;6.70;;
69246;SDS011;56358;56.328;43.992;2022-12-18T01:37:29;20.08;;;8.35;;
69246;SDS011;56358;56.328;43.992;2022-12-18T01:39:30;16.10;;;7.00;;
69246;SDS011;56358;56.328;43.992;2022-12-18T01:41:32;18.50;;;6.70;;
69246;SDS011;56358;56.328;43.992;2022-12-18T01:43:54;21.75;;;8.68;;
69246;SDS011;56358;56.328;43.992;2022-12-18T01:45:59;26.85;;;9.50;;
69246;SDS011;56358;56.328;43.992;2022-12-18T01:48:03;25.08;;;9.05;;
69246;SDS011;56358;56.328;43.992;2022-12-18T01:52:11;18.60;;;7.45;;
69246;SDS011;56358;56.328;43.992;2022-12-18T01:54:12;18.60;;;7.60;;
69246;SDS011;56358;56.328;43.992;2022-12-18T01:56:14;16.95;;;6.55;;
69246;SDS011;56358;56.328;43.992;2022-12-18T01:58:20;23.65;;;7.47;;
69246;SDS011;56358;56.328;43.992;2022-12-18T02:00:32;15.52;;;5.88;;
69246;SDS011;56358;56.328;43.992;2022-12-18T02:02:33;18.40;;;7.10;;
69246;SDS011;56358;56.328;43.992;2022-12-18T02:04:33;16.83;;;6.57;;
69246;SDS011;56358;56.328;43.992;2022-12-18T02:06:35;18.40;;;5.70;;
69246;SDS011;56358;56.328;43.992;2022-12-18T02:08:48;22.48;;;7.00;;
69246;SDS011;56358;56.328;43.992;2022-12-18T02:13:30;21.15;;;6.90;;
69246;SDS011;56358;56.328;43.992;2022-12-18T02:18:38;11.90;;;5.13;;
69246;SDS011;56358;56.328;43.992;2022-12-18T02:27:41;21.02;;;5.75;;
69246;SDS011;56358;56.328;43.992;2022-12-18T02:29:53;22.50;;;7.63;;
69246;SDS011;56358;56.328;43.992;2022-12-18T02:32:00;19.45;;;7.07;;
69246;SDS011;56358;56.328;43.992;2022-12-18T02:34:04;16.95;;;6.78;;
69246;SDS011;56358;56.328;43.992;2022-12-18T02:36:08;20.05;;;6.60;;
69246;SDS011;56358;56.328;43.992;2022-12-18T02:38:11;18.13;;;6.15;;
69246;SDS011;56358;56.328;43.992;2022-12-18T02:40:12;16.25;;;6.25;;
69246;SDS011;56358;56.328;43.992;2022-12-18T02:44:16;15.68;;;5.03;;
69246;SDS011;56358;56.328;43.992;2022-12-18T02:48:28;18.45;;;5.70;;
69246;SDS011;56358;56.328;43.992;2022-12-18T02:50:43;12.70;;;4.85;;
69246;SDS011;56358;56.328;43.992;2022-12-18T02:52:52;17.85;;;7.03;;
69246;SDS011;56358;56.328;43.992;2022-12-18T02:55:19;19.08;;;6.82;;
69246;SDS011;56358;56.328;43.992;2022-12-18T02:57:40;18.15;;;6.28;;
69246;SDS011;56358;56.328;43.992;2022-12-18T02:59:49;18.23;;;6.13;;
69246;SDS011;56358;56.328;43.992;2022-12-18T03:01:58;16.85;;;6.00;;
69246;SDS011;56358;56.328;43.992;2022-12-18T03:04:06;17.70;;;6.65;;
69246;SDS011;56358;56.328;43.992;2022-12-18T03:06:26;14.20;;;5.78;;
69246;SDS011;56358;56.328;43.992;2022-12-18T03:08:32;15.95;;;5.72;;
69246;SDS011;56358;56.328;43.992;2022-12-18T03:10:41;18.17;;;7.30;;
69246;SDS011;56358;56.328;43.992;2022-12-18T03:12:51;20.55;;;6.65;;
69246;SDS011;56358;56.328;43.992;2022-12-18T03:14:59;15.00;;;5.30;;
69246;SDS011;56358;56.328;43.992;2022-12-18T03:17:05;15.15;;;5.50;;
69246;SDS011;56358;56.328;43.992;2022-12-18T03:19:11;12.82;;;4.93;;
69246;SDS011;56358;56.328;43.992;2022-12-18T03:21:17;14.30;;;6.15;;
69246;SDS011;56358;56.328;43.992;2022-12-18T03:23:22;14.23;;;6.65;;
69246;SDS011;56358;56.328;43.992;2022-12-18T03:25:27;15.68;;;5.63;;
69246;SDS011;56358;56.328;43.992;2022-12-18T03:27:30;18.73;;;6.53;;
69246;SDS011;56358;56.328;43.992;2022-12-18T03:29:35;15.98;;;5.45;;
69246;SDS011;56358;56.328;43.992;2022-12-18T03:31:40;14.25;;;5.03;;
69246;SDS011;56358;56.328;43.992;2022-12-18T03:35:52;15.05;;;6.15;;
69246;SDS011;56358;56.328;43.992;2022-12-18T03:37:53;12.73;;;5.75;;
69246;SDS011;56358;56.328;43.992;2022-12-18T03:39:53;14.93;;;5.63;;
69246;SDS011;56358;56.328;43.992;2022-12-18T03:44:33;11.57;;;5.05;;
69246;SDS011;56358;56.328;43.992;2022-12-18T03:46:46;8.33;;;4.50;;
69246;SDS011;56358;56.328;43.992;2022-12-18T03:49:23;15.60;;;5.88;;
69246;SDS011;56358;56.328;43.992;2022-12-18T03:51:38;6.53;;;3.35;;
69246;SDS011;56358;56.328;43.992;2022-12-18T03:53:57;15.07;;;5.25;;
69246;SDS011;56358;56.328;43.992;2022-12-18T03:58:03;13.55;;;4.53;;
69246;SDS011;56358;56.328;43.992;2022-12-18T04:00:08;8.20;;;3.60;;
69246;SDS011;56358;56.328;43.992;2022-12-18T04:02:13;12.57;;;4.85;;
69246;SDS011;56358;56.328;43.992;2022-12-18T04:06:18;12.95;;;4.80;;
69246;SDS011;56358;56.328;43.992;2022-12-18T04:08:19;9.40;;;4.07;;
69246;SDS011;56358;56.328;43.992;2022-12-18T04:10:21;10.77;;;4.57;;
69246;SDS011;56358;56.328;43.992;2022-12-18T04:12:26;11.45;;;4.88;;
69246;SDS011;56358;56.328;43.992;2022-12-18T04:14:28;13.75;;;5.85;;
69246;SDS011;56358;56.328;43.992;2022-12-18T04:16:29;11.20;;;4.82;;
69246;SDS011;56358;56.328;43.992;2022-12-18T04:18:30;11.70;;;4.05;;
69246;SDS011;56358;56.328;43.992;2022-12-18T04:20:31;15.32;;;5.50;;
69246;SDS011;56358;56.328;43.992;2022-12-18T04:22:31;9.57;;;4.60;;
69246;SDS011;56358;56.328;43.992;2022-12-18T04:24:32;10.27;;;3.88;;
69246;SDS011;56358;56.328;43.992;2022-12-18T04:26:32;12.75;;;4.60;;
69246;SDS011;56358;56.328;43.992;2022-12-18T04:28:33;8.75;;;4.38;;
69246;SDS011;56358;56.328;43.992;2022-12-18T04:30:34;13.40;;;5.38;;
69246;SDS011;56358;56.328;43.992;2022-12-18T04:32:34;11.32;;;4.65;;
69246;SDS011;56358;56.328;43.992;2022-12-18T04:34:35;15.23;;;5.38;;
69246;SDS011;56358;56.328;43.992;2022-12-18T04:36:36;9.30;;;4.10;;
69246;SDS011;56358;56.328;43.992;2022-12-18T04:38:37;15.60;;;5.68;;
69246;SDS011;56358;56.328;43.992;2022-12-18T04:40:37;16.08;;;5.50;;
69246;SDS011;56358;56.328;43.992;2022-12-18T04:42:39;10.05;;;4.65;;
69246;SDS011;56358;56.328;43.992;2022-12-18T04:44:40;13.82;;;5.65;;
69246;SDS011;56358;56.328;43.992;2022-12-18T04:46:41;12.27;;;4.82;;
69246;SDS011;56358;56.328;43.992;2022-12-18T04:48:41;14.32;;;6.03;;
69246;SDS011;56358;56.328;43.992;2022-12-18T04:50:42;9.02;;;5.32;;
69246;SDS011;56358;56.328;43.992;2022-12-18T04:52:42;13.45;;;5.90;;
69246;SDS011;56358;56.328;43.992;2022-12-18T04:54:43;13.75;;;5.55;;
69246;SDS011;56358;56.328;43.992;2022-12-18T04:56:44;12.75;;;5.30;;
69246;SDS011;56358;56.328;43.992;2022-12-18T04:58:44;12.98;;;5.53;;
69246;SDS011;56358;56.328;43.992;2022-12-18T05:00:45;17.73;;;5.45;;
69246;SDS011;56358;56.328;43.992;2022-12-18T05:02:46;14.50;;;5.72;;
69246;SDS011;56358;56.328;43.992;2022-12-18T05:04:46;14.68;;;6.07;;
69246;SDS011;56358;56.328;43.992;2022-12-18T05:06:47;18.15;;;6.13;;
69246;SDS011;56358;56.328;43.992;2022-12-18T05:08:48;15.43;;;6.82;;
69246;SDS011;56358;56.328;43.992;2022-12-18T05:10:48;9.77;;;4.72;;
69246;SDS011;56358;56.328;43.992;2022-12-18T05:12:49;14.25;;;6.10;;
69246;SDS011;56358;56.328;43.992;2022-12-18T05:14:59;10.77;;;5.18;;
69246;SDS011;56358;56.328;43.992;2022-12-18T05:16:59;15.88;;;6.45;;
69246;SDS011;56358;56.328;43.992;2022-12-18T05:19:00;17.50;;;7.50;;
69246;SDS011;56358;56.328;43.992;2022-12-18T05:21:00;13.90;;;5.93;;
69246;SDS011;56358;56.328;43.992;2022-12-18T05:23:02;14.35;;;5.63;;
69246;SDS011;56358;56.328;43.992;2022-12-18T05:25:02;18.63;;;6.30;;
69246;SDS011;56358;56.328;43.992;2022-12-18T05:27:03;11.93;;;5.90;;
69246;SDS011;56358;56.328;43.992;2022-12-18T05:29:04;15.13;;;5.45;;
69246;SDS011;56358;56.328;43.992;2022-12-18T05:31:05;11.98;;;4.88;;
69246;SDS011;56358;56.328;43.992;2022-12-18T05:33:05;14.15;;;4.68;;
69246;SDS011;56358;56.328;43.992;2022-12-18T05:35:07;16.85;;;5.78;;
69246;SDS011;56358;56.328;43.992;2022-12-18T05:37:09;14.27;;;5.65;;
69246;SDS011;56358;56.328;43.992;2022-12-18T05:39:09;10.23;;;4.50;;
69246;SDS011;56358;56.328;43.992;2022-12-18T05:41:10;16.60;;;6.00;;
69246;SDS011;56358;56.328;43.992;2022-12-18T05:43:11;16.75;;;6.55;;
69246;SDS011;56358;56.328;43.992;2022-12-18T05:45:11;14.63;;;5.90;;
69246;SDS011;56358;56.328;43.992;2022-12-18T05:47:12;11.48;;;5.32;;
69246;SDS011;56358;56.328;43.992;2022-12-18T05:49:13;15.30;;;5.97;;
69246;SDS011;56358;56.328;43.992;2022-12-18T05:51:15;14.07;;;5.53;;
69246;SDS011;56358;56.328;43.992;2022-12-18T05:53:17;11.77;;;5.30;;
69246;SDS011;56358;56.328;43.992;2022-12-18T05:55:19;14.77;;;5.55;;
69246;SDS011;56358;56.328;43.992;2022-12-18T05:57:22;11.80;;;5.10;;
69246;SDS011;56358;56.328;43.992;2022-12-18T05:59:23;13.27;;;5.88;;
69246;SDS011;56358;56.328;43.992;2022-12-18T06:01:25;18.20;;;6.65;;
69246;SDS011;56358;56.328;43.992;2022-12-18T06:03:26;17.42;;;6.13;;
69246;SDS011;56358;56.328;43.992;2022-12-18T06:05:27;13.98;;;5.07;;
69246;SDS011;56358;56.328;43.992;2022-12-18T06:07:28;12.63;;;5.75;;
69246;SDS011;56358;56.328;43.992;2022-12-18T06:09:28;12.23;;;6.13;;
69246;SDS011;56358;56.328;43.992;2022-12-18T06:11:29;16.30;;;6.60;;
69246;SDS011;56358;56.328;43.992;2022-12-18T06:13:30;16.38;;;5.88;;
69246;SDS011;56358;56.328;43.992;2022-12-18T06:15:30;14.75;;;5.90;;
69246;SDS011;56358;56.328;43.992;2022-12-18T06:17:31;17.42;;;6.20;;
69246;SDS011;56358;56.328;43.992;2022-12-18T06:19:32;15.13;;;5.35;;
69246;SDS011;56358;56.328;43.992;2022-12-18T06:21:33;15.02;;;5.93;;
69246;SDS011;56358;56.328;43.992;2022-12-18T06:23:34;17.38;;;6.28;;
69246;SDS011;56358;56.328;43.992;2022-12-18T06:25:37;12.55;;;4.97;;
69246;SDS011;56358;56.328;43.992;2022-12-18T06:27:39;15.05;;;6.15;;
69246;SDS011;56358;56.328;43.992;2022-12-18T06:29:40;11.30;;;5.50;;
69246;SDS011;56358;56.328;43.992;2022-12-18T06:31:40;13.18;;;5.38;;
69246;SDS011;56358;56.328;43.992;2022-12-18T06:33:41;14.82;;;5.68;;
69246;SDS011;56358;56.328;43.992;2022-12-18T06:35:42;15.13;;;6.68;;
69246;SDS011;56358;56.328;43.992;2022-12-18T06:37:42;17.88;;;5.70;;
69246;SDS011;56358;56.328;43.992;2022-12-18T06:39:43;19.10;;;6.63;;
69246;SDS011;56358;56.328;43.992;2022-12-18T06:41:44;14.75;;;6.03;;
69246;SDS011;56358;56.328;43.992;2022-12-18T06:43:44;14.80;;;5.88;;
69246;SDS011;56358;56.328;43.992;2022-12-18T06:45:45;13.18;;;5.78;;
69246;SDS011;56358;56.328;43.992;2022-12-18T06:47:49;16.17;;;6.10;;
69246;SDS011;56358;56.328;43.992;2022-12-18T06:49:50;13.73;;;5.85;;
69246;SDS011;56358;56.328;43.992;2022-12-18T06:51:51;17.30;;;5.85;;
69246;SDS011;56358;56.328;43.992;2022-12-18T06:53:52;15.00;;;5.53;;
69246;SDS011;56358;56.328;43.992;2022-12-18T06:55:58;13.07;;;6.18;;
69246;SDS011;56358;56.328;43.992;2022-12-18T06:58:01;15.50;;;6.63;;
69246;SDS011;56358;56.328;43.992;2022-12-18T07:00:02;18.30;;;6.07;;
69246;SDS011;56358;56.328;43.992;2022-12-18T07:02:06;15.75;;;6.53;;
69246;SDS011;56358;56.328;43.992;2022-12-18T07:04:06;12.95;;;5.72;;
69246;SDS011;56358;56.328;43.992;2022-12-18T07:06:12;13.98;;;5.78;;
69246;SDS011;56358;56.328;43.992;2022-12-18T07:08:15;14.85;;;5.78;;
69246;SDS011;56358;56.328;43.992;2022-12-18T07:10:15;13.75;;;6.07;;
69246;SDS011;56358;56.328;43.992;2022-12-18T07:12:16;15.82;;;5.95;;
69246;SDS011;56358;56.328;43.992;2022-12-18T07:14:17;11.93;;;6.03;;
69246;SDS011;56358;56.328;43.992;2022-12-18T07:16:18;14.65;;;5.70;;
69246;SDS011;56358;56.328;43.992;2022-12-18T07:18:20;15.38;;;5.93;;
69246;SDS011;56358;56.328;43.992;2022-12-18T07:20:21;14.20;;;5.85;;
69246;SDS011;56358;56.328;43.992;2022-12-18T07:22:21;14.40;;;5.72;;
69246;SDS011;56358;56.328;43.992;2022-12-18T07:24:22;12.57;;;5.57;;
69246;SDS011;56358;56.328;43.992;2022-12-18T07:26:23;13.93;;;5.45;;
69246;SDS011;56358;56.328;43.992;2022-12-18T07:28:23;15.45;;;6.20;;
69246;SDS011;56358;56.328;43.992;2022-12-18T07:30:24;14.65;;;5.72;;
69246;SDS011;56358;56.328;43.992;2022-12-18T07:32:24;17.33;;;6.75;;
69246;SDS011;56358;56.328;43.992;2022-12-18T07:34:25;19.15;;;6.78;;
69246;SDS011;56358;56.328;43.992;2022-12-18T07:36:26;16.45;;;5.80;;
69246;SDS011;56358;56.328;43.992;2022-12-18T07:38:26;14.13;;;5.97;;
69246;SDS011;56358;56.328;43.992;2022-12-18T07:40:27;14.25;;;5.55;;
69246;SDS011;56358;56.328;43.992;2022-12-18T07:42:28;14.48;;;7.20;;
69246;SDS011;56358;56.328;43.992;2022-12-18T07:44:31;13.68;;;5.13;;
69246;SDS011;56358;56.328;43.992;2022-12-18T07:46:32;14.68;;;5.90;;
69246;SDS011;56358;56.328;43.992;2022-12-18T07:48:32;16.80;;;6.18;;
69246;SDS011;56358;56.328;43.992;2022-12-18T07:50:34;13.90;;;5.25;;
69246;SDS011;56358;56.328;43.992;2022-12-18T07:52:34;15.98;;;6.70;;
69246;SDS011;56358;56.328;43.992;2022-12-18T07:54:35;14.98;;;5.75;;
69246;SDS011;56358;56.328;43.992;2022-12-18T07:56:35;14.43;;;5.70;;
69246;SDS011;56358;56.328;43.992;2022-12-18T07:58:36;11.85;;;5.80;;
69246;SDS011;56358;56.328;43.992;2022-12-18T08:00:37;13.65;;;5.25;;
69246;SDS011;56358;56.328;43.992;2022-12-18T08:02:38;12.15;;;4.82;;
69246;SDS011;56358;56.328;43.992;2022-12-18T08:04:38;12.55;;;6.15;;
69246;SDS011;56358;56.328;43.992;2022-12-18T08:06:39;16.17;;;6.15;;
69246;SDS011;56358;56.328;43.992;2022-12-18T08:08:39;15.10;;;6.05;;
69246;SDS011;56358;56.328;43.992;2022-12-18T08:10:42;14.80;;;6.22;;
69246;SDS011;56358;56.328;43.992;2022-12-18T08:12:42;13.95;;;5.38;;
69246;SDS011;56358;56.328;43.992;2022-12-18T08:14:43;15.50;;;6.00;;
69246;SDS011;56358;56.328;43.992;2022-12-18T08:16:44;13.77;;;5.28;;
69246;SDS011;56358;56.328;43.992;2022-12-18T08:18:44;14.07;;;5.95;;
69246;SDS011;56358;56.328;43.992;2022-12-18T08:20:45;12.13;;;5.10;;
69246;SDS011;56358;56.328;43.992;2022-12-18T08:22:46;11.10;;;4.90;;
69246;SDS011;56358;56.328;43.992;2022-12-18T08:24:46;16.45;;;5.82;;
69246;SDS011;56358;56.328;43.992;2022-12-18T08:26:47;15.80;;;6.28;;
69246;SDS011;56358;56.328;43.992;2022-12-18T08:28:48;16.92;;;6.35;;
69246;SDS011;56358;56.328;43.992;2022-12-18T08:30:52;13.55;;;5.85;;
69246;SDS011;56358;56.328;43.992;2022-12-18T08:32:53;15.05;;;6.15;;
69246;SDS011;56358;56.328;43.992;2022-12-18T08:34:54;19.65;;;6.25;;
69246;SDS011;56358;56.328;43.992;2022-12-18T08:36:54;15.18;;;5.82;;
69246;SDS011;56358;56.328;43.992;2022-12-18T08:38:56;14.15;;;5.72;;
69246;SDS011;56358;56.328;43.992;2022-12-18T08:43:01;13.65;;;5.38;;
69246;SDS011;56358;56.328;43.992;2022-12-18T08:45:20;14.60;;;5.70;;
69246;SDS011;56358;56.328;43.992;2022-12-18T08:47:21;17.20;;;6.25;;
69246;SDS011;56358;56.328;43.992;2022-12-18T08:49:22;17.05;;;6.80;;
69246;SDS011;56358;56.328;43.992;2022-12-18T08:51:22;17.33;;;6.63;;
69246;SDS011;56358;56.328;43.992;2022-12-18T08:53:23;16.00;;;6.22;;
69246;SDS011;56358;56.328;43.992;2022-12-18T08:55:24;17.00;;;7.38;;
69246;SDS011;56358;56.328;43.992;2022-12-18T08:57:25;15.32;;;6.30;;
69246;SDS011;56358;56.328;43.992;2022-12-18T08:59:25;13.43;;;5.53;;
69246;SDS011;56358;56.328;43.992;2022-12-18T09:01:26;16.17;;;6.75;;
69246;SDS011;56358;56.328;43.992;2022-12-18T09:03:27;15.70;;;5.97;;
69246;SDS011;56358;56.328;43.992;2022-12-18T09:05:27;13.95;;;6.00;;
69246;SDS011;56358;56.328;43.992;2022-12-18T09:07:28;17.38;;;6.72;;
69246;SDS011;56358;56.328;43.992;2022-12-18T09:09:29;14.18;;;5.50;;
69246;SDS011;56358;56.328;43.992;2022-12-18T09:11:30;15.05;;;5.90;;
69246;SDS011;56358;56.328;43.992;2022-12-18T09:13:32;15.23;;;6.37;;
69246;SDS011;56358;56.328;43.992;2022-12-18T09:15:32;14.43;;;5.45;;
69246;SDS011;56358;56.328;43.992;2022-12-18T09:17:33;13.77;;;6.03;;
69246;SDS011;56358;56.328;43.992;2022-12-18T09:19:33;18.02;;;7.85;;
69246;SDS011;56358;56.328;43.992;2022-12-18T09:21:37;13.27;;;5.72;;
69246;SDS011;56358;56.328;43.992;2022-12-18T09:23:39;17.73;;;6.00;;
69246;SDS011;56358;56.328;43.992;2022-12-18T09:25:40;14.40;;;6.13;;
69246;SDS011;56358;56.328;43.992;2022-12-18T09:27:40;16.63;;;6.20;;
69246;SDS011;56358;56.328;43.992;2022-12-18T09:29:41;16.63;;;6.93;;
69246;SDS011;56358;56.328;43.992;2022-12-18T09:31:42;16.70;;;6.75;;
69246;SDS011;56358;56.328;43.992;2022-12-18T09:33:43;17.75;;;6.13;;
69246;SDS011;56358;56.328;43.992;2022-12-18T09:35:45;15.02;;;6.65;;
69246;SDS011;56358;56.328;43.992;2022-12-18T09:37:46;13.70;;;5.40;;
69246;SDS011;56358;56.328;43.992;2022-12-18T09:39:47;15.20;;;6.43;;
69246;SDS011;56358;56.328;43.992;2022-12-18T09:41:50;14.95;;;6.18;;
69246;SDS011;56358;56.328;43.992;2022-12-18T09:44:18;17.05;;;6.45;;
69246;SDS011;56358;56.328;43.992;2022-12-18T09:47:01;15.65;;;6.15;;
69246;SDS011;56358;56.328;43.992;2022-12-18T09:49:05;14.63;;;5.82;;
69246;SDS011;56358;56.328;43.992;2022-12-18T09:51:15;17.80;;;6.57;;
69246;SDS011;56358;56.328;43.992;2022-12-18T09:53:24;12.23;;;5.50;;
69246;SDS011;56358;56.328;43.992;2022-12-18T09:55:41;17.10;;;6.22;;
69246;SDS011;56358;56.328;43.992;2022-12-18T09:57:45;15.25;;;5.35;;
69246;SDS011;56358;56.328;43.992;2022-12-18T09:59:51;16.48;;;6.50;;
69246;SDS011;56358;56.328;43.992;2022-12-18T10:01:55;18.90;;;6.75;;
69246;SDS011;56358;56.328;43.992;2022-12-18T10:03:56;15.75;;;6.40;;
69246;SDS011;56358;56.328;43.992;2022-12-18T10:13:06;14.88;;;5.85;;
69246;SDS011;56358;56.328;43.992;2022-12-18T10:15:19;13.18;;;5.70;;
69246;SDS011;56358;56.328;43.992;2022-12-18T10:24:33;12.27;;;5.40;;
69246;SDS011;56358;56.328;43.992;2022-12-18T10:26:37;13.15;;;6.22;;
69246;SDS011;56358;56.328;43.992;2022-12-18T10:28:39;12.48;;;5.80;;
69246;SDS011;56358;56.328;43.992;2022-12-18T10:30:41;16.15;;;5.68;;
69246;SDS011;56358;56.328;43.992;2022-12-18T10:32:43;12.00;;;5.30;;
69246;SDS011;56358;56.328;43.992;2022-12-18T10:34:47;10.68;;;4.88;;
69246;SDS011;56358;56.328;43.992;2022-12-18T10:36:49;14.00;;;6.78;;
69246;SDS011;56358;56.328;43.992;2022-12-18T10:38:49;13.82;;;5.68;;
69246;SDS011;56358;56.328;43.992;2022-12-18T10:41:00;14.15;;;5.85;;
69246;SDS011;56358;56.328;43.992;2022-12-18T10:45:34;17.35;;;5.82;;
69246;SDS011;56358;56.328;43.992;2022-12-18T10:47:35;15.60;;;5.57;;
69246;SDS011;56358;56.328;43.992;2022-12-18T10:49:36;15.88;;;6.05;;
69246;SDS011;56358;56.328;43.992;2022-12-18T10:51:40;15.35;;;6.25;;
69246;SDS011;56358;56.328;43.992;2022-12-18T10:53:41;14.38;;;6.15;;
69246;SDS011;56358;56.328;43.992;2022-12-18T10:55:44;14.65;;;5.50;;
69246;SDS011;56358;56.328;43.992;2022-12-18T10:57:46;13.93;;;5.20;;
69246;SDS011;56358;56.328;43.992;2022-12-18T10:59:51;14.68;;;5.90;;
69246;SDS011;56358;56.328;43.992;2022-12-18T11:01:55;13.93;;;6.10;;
69246;SDS011;56358;56.328;43.992;2022-12-18T11:03:59;17.95;;;6.57;;
69246;SDS011;56358;56.328;43.992;2022-12-18T11:06:03;11.23;;;5.68;;
69246;SDS011;56358;56.328;43.992;2022-12-18T11:08:12;14.30;;;6.03;;
69246;SDS011;56358;56.328;43.992;2022-12-18T11:10:25;14.80;;;6.45;;
69246;SDS011;56358;56.328;43.992;2022-12-18T11:12:36;12.75;;;5.82;;
69246;SDS011;56358;56.328;43.992;2022-12-18T11:16:52;21.23;;;5.80;;
69246;SDS011;56358;56.328;43.992;2022-12-18T11:18:54;16.95;;;6.22;;
69246;SDS011;56358;56.328;43.992;2022-12-18T11:21:11;7.13;;;3.58;;
69246;SDS011;56358;56.328;43.992;2022-12-18T11:23:13;12.65;;;5.07;;
69246;SDS011;56358;56.328;43.992;2022-12-18T11:27:15;13.45;;;5.82;;
69246;SDS011;56358;56.328;43.992;2022-12-18T11:29:28;13.95;;;4.63;;
69246;SDS011;56358;56.328;43.992;2022-12-18T11:31:33;8.75;;;4.32;;
69246;SDS011;56358;56.328;43.992;2022-12-18T11:33:34;15.68;;;5.25;;
69246;SDS011;56358;56.328;43.992;2022-12-18T11:35:42;10.85;;;5.70;;
69246;SDS011;56358;56.328;43.992;2022-12-18T11:37:50;12.88;;;5.53;;
69246;SDS011;56358;56.328;43.992;2022-12-18T11:39:59;9.90;;;4.85;;
69246;SDS011;56358;56.328;43.992;2022-12-18T11:44:32;12.20;;;5.18;;
69246;SDS011;56358;56.328;43.992;2022-12-18T11:46:46;12.98;;;5.00;;
69246;SDS011;56358;56.328;43.992;2022-12-18T11:49:10;13.75;;;5.15;;
69246;SDS011;56358;56.328;43.992;2022-12-18T11:51:15;10.48;;;4.20;;
69246;SDS011;56358;56.328;43.992;2022-12-18T11:53:23;9.77;;;5.15;;
69246;SDS011;56358;56.328;43.992;2022-12-18T11:55:49;11.05;;;4.78;;
69246;SDS011;56358;56.328;43.992;2022-12-18T12:00:21;10.65;;;3.75;;
69246;SDS011;56358;56.328;43.992;2022-12-18T12:17:54;9.38;;;3.25;;
69246;SDS011;56358;56.328;43.992;2022-12-18T12:37:43;10.70;;;4.53;;
69246;SDS011;56358;56.328;43.992;2022-12-18T12:39:39;9.82;;;3.95;;
69246;SDS011;56358;56.328;43.992;2022-12-18T12:41:42;10.57;;;4.03;;
69246;SDS011;56358;56.328;43.992;2022-12-18T12:44:06;10.63;;;4.30;;
69246;SDS011;56358;56.328;43.992;2022-12-18T12:46:13;10.43;;;4.22;;
69246;SDS011;56358;56.328;43.992;2022-12-18T12:48:35;11.00;;;4.43;;
69246;SDS011;56358;56.328;43.992;2022-12-18T12:50:36;10.90;;;4.20;;
69246;SDS011;56358;56.328;43.992;2022-12-18T12:52:56;10.87;;;4.17;;
69246;SDS011;56358;56.328;43.992;2022-12-18T12:54:58;8.35;;;3.85;;
69246;SDS011;56358;56.328;43.992;2022-12-18T12:57:02;9.27;;;3.95;;
69246;SDS011;56358;56.328;43.992;2022-12-18T13:07:01;6.15;;;3.30;;
69246;SDS011;56358;56.328;43.992;2022-12-18T13:09:11;10.15;;;3.72;;
69246;SDS011;56358;56.328;43.992;2022-12-18T13:11:15;11.43;;;4.88;;
69246;SDS011;56358;56.328;43.992;2022-12-18T13:18:15;10.70;;;3.95;;
69246;SDS011;56358;56.328;43.992;2022-12-18T13:20:21;10.93;;;4.13;;
69246;SDS011;56358;56.328;43.992;2022-12-18T13:22:22;9.80;;;4.75;;
69246;SDS011;56358;56.328;43.992;2022-12-18T13:24:30;9.35;;;3.78;;
69246;SDS011;56358;56.328;43.992;2022-12-18T13:26:31;7.00;;;3.63;;
69246;SDS011;56358;56.328;43.992;2022-12-18T13:32:46;10.32;;;3.97;;
69246;SDS011;56358;56.328;43.992;2022-12-18T13:34:46;9.20;;;3.60;;
69246;SDS011;56358;56.328;43.992;2022-12-18T13:36:47;11.10;;;4.22;;
69246;SDS011;56358;56.328;43.992;2022-12-18T13:43:23;6.78;;;2.85;;
69246;SDS011;56358;56.328;43.992;2022-12-18T13:45:41;8.95;;;4.32;;
69246;SDS011;56358;56.328;43.992;2022-12-18T13:47:44;7.35;;;3.58;;
69246;SDS011;56358;56.328;43.992;2022-12-18T13:49:45;10.13;;;4.40;;
69246;SDS011;56358;56.328;43.992;2022-12-18T13:51:47;8.60;;;3.58;;
69246;SDS011;56358;56.328;43.992;2022-12-18T13:53:58;8.82;;;3.05;;
69246;SDS011;56358;56.328;43.992;2022-12-18T13:56:01;8.70;;;3.95;;